sensor_id;sensor_type;location;lat;lon;timestamp;pressure;altitude;pressure_sealevel;temperature;humidity
11415;BME280;5763;42.714;23.244;2023-12-07T00:02:17;94013.38;;;6.84;85.51
11415;BME280;5763;42.714;23.244;2023-12-07T00:04:44;94230.97;;;7.95;85.84
11415;BME280;5763;42.714;23.244;2023-12-07T00:07:12;94200.47;;;7.79;86.78
11415;BME280;5763;42.714;23.244;2023-12-07T00:09:41;94044.00;;;6.85;85.73
11415;BME280;5763;42.714;23.244;2023-12-07T00:12:08;94109.53;;;7.33;84.79
11415;BME280;5763;42.714;23.244;2023-12-07T00:14:35;94100.66;;;7.20;84.56
11415;BME280;5763;42.714;23.244;2023-12-07T00:17:03;94189.88;;;7.81;84.37
11415;BME280;5763;42.714;23.244;2023-12-07T00:19:30;94069.25;;;6.85;84.22
11415;BME280;5763;42.714;23.244;2023-12-07T00:21:56;94200.31;;;7.82;84.64
11415;BME280;5763;42.714;23.244;2023-12-07T00:24:23;94140.16;;;7.46;85.43
11415;BME280;5763;42.714;23.244;2023-12-07T00:26:52;94051.09;;;6.82;86.04
11415;BME280;5763;42.714;23.244;2023-12-07T00:29:19;94096.44;;;6.85;86.18
11415;BME280;5763;42.714;23.244;2023-12-07T00:31:46;94145.28;;;7.44;85.40
11415;BME280;5763;42.714;23.244;2023-12-07T00:34:13;94136.59;;;7.37;85.18
11415;BME280;5763;42.714;23.244;2023-12-07T00:36:40;94091.88;;;6.82;85.29
11415;BME280;5763;42.714;23.244;2023-12-07T00:39:07;94233.00;;;7.82;85.51
11415;BME280;5763;42.714;23.244;2023-12-07T00:41:35;94022.31;;;6.72;84.99
11415;BME280;5763;42.714;23.244;2023-12-07T00:44:04;94034.91;;;6.45;86.43
11415;BME280;5763;42.714;23.244;2023-12-07T00:46:31;94195.81;;;7.67;86.81
11415;BME280;5763;42.714;23.244;2023-12-07T00:48:58;94136.41;;;7.10;86.50
11415;BME280;5763;42.714;23.244;2023-12-07T00:51:26;94197.16;;;7.62;87.03
11415;BME280;5763;42.714;23.244;2023-12-07T00:53:53;94110.28;;;7.12;86.37
11415;BME280;5763;42.714;23.244;2023-12-07T00:56:20;94144.59;;;7.31;87.10
11415;BME280;5763;42.714;23.244;2023-12-07T00:58:47;94126.09;;;7.26;86.52
11415;BME280;5763;42.714;23.244;2023-12-07T01:01:16;94191.06;;;7.80;86.12
11415;BME280;5763;42.714;23.244;2023-12-07T01:03:44;94190.56;;;7.94;85.09
11415;BME280;5763;42.714;23.244;2023-12-07T01:06:11;94126.22;;;7.44;84.91
11415;BME280;5763;42.714;23.244;2023-12-07T01:08:38;94187.28;;;7.99;84.73
11415;BME280;5763;42.714;23.244;2023-12-07T01:11:05;94190.16;;;8.04;84.61
11415;BME280;5763;42.714;23.244;2023-12-07T01:13:33;94025.56;;;7.01;83.64
11415;BME280;5763;42.714;23.244;2023-12-07T01:16:01;94122.56;;;7.60;83.82
11415;BME280;5763;42.714;23.244;2023-12-07T01:18:30;94138.69;;;7.54;84.54
11415;BME280;5763;42.714;23.244;2023-12-07T01:20:57;94189.94;;;7.90;85.04
11415;BME280;5763;42.714;23.244;2023-12-07T01:23:25;94189.38;;;7.73;85.58
11415;BME280;5763;42.714;23.244;2023-12-07T01:25:52;94104.34;;;7.26;85.91
11415;BME280;5763;42.714;23.244;2023-12-07T01:28:19;94183.06;;;7.85;85.48
11415;BME280;5763;42.714;23.244;2023-12-07T01:30:46;94186.13;;;7.87;85.66
11415;BME280;5763;42.714;23.244;2023-12-07T01:33:13;94135.84;;;7.15;86.29
11415;BME280;5763;42.714;23.244;2023-12-07T01:35:42;94021.00;;;6.77;85.67
11415;BME280;5763;42.714;23.244;2023-12-07T01:38:09;94102.50;;;7.02;86.54
11415;BME280;5763;42.714;23.244;2023-12-07T01:40:38;94146.78;;;7.24;86.60
11415;BME280;5763;42.714;23.244;2023-12-07T01:43:05;94182.19;;;7.67;86.73
11415;BME280;5763;42.714;23.244;2023-12-07T01:45:32;94068.13;;;6.95;86.76
11415;BME280;5763;42.714;23.244;2023-12-07T01:48:00;94005.66;;;6.49;86.37
11415;BME280;5763;42.714;23.244;2023-12-07T01:50:28;94172.34;;;7.60;87.03
11415;BME280;5763;42.714;23.244;2023-12-07T01:53:01;94102.25;;;7.30;86.50
11415;BME280;5763;42.714;23.244;2023-12-07T01:55:29;94106.03;;;7.11;85.79
11415;BME280;5763;42.714;23.244;2023-12-07T01:57:56;94175.53;;;7.89;85.41
11415;BME280;5763;42.714;23.244;2023-12-07T02:00:24;94049.66;;;6.90;85.04
11415;BME280;5763;42.714;23.244;2023-12-07T02:02:53;94103.00;;;7.52;84.93
11415;BME280;5763;42.714;23.244;2023-12-07T02:05:21;94113.25;;;7.48;84.86
11415;BME280;5763;42.714;23.244;2023-12-07T02:07:49;94167.88;;;7.97;84.55
11415;BME280;5763;42.714;23.244;2023-12-07T02:10:19;94140.53;;;7.57;84.31
11415;BME280;5763;42.714;23.244;2023-12-07T02:12:46;93996.28;;;6.84;83.76
11415;BME280;5763;42.714;23.244;2023-12-07T02:15:14;94171.88;;;7.83;83.97
11415;BME280;5763;42.714;23.244;2023-12-07T02:17:49;94148.50;;;7.73;83.04
11415;BME280;5763;42.714;23.244;2023-12-07T02:20:24;94104.22;;;7.51;83.05
11415;BME280;5763;42.714;23.244;2023-12-07T02:22:55;94022.59;;;6.87;83.13
11415;BME280;5763;42.714;23.244;2023-12-07T02:25:36;94103.56;;;7.47;83.42
11415;BME280;5763;42.714;23.244;2023-12-07T02:28:05;94124.84;;;7.40;83.83
11415;BME280;5763;42.714;23.244;2023-12-07T02:30:32;94156.25;;;7.75;84.47
11415;BME280;5763;42.714;23.244;2023-12-07T02:32:59;94172.31;;;7.82;85.17
11415;BME280;5763;42.714;23.244;2023-12-07T02:35:28;94192.03;;;7.86;85.41
11415;BME280;5763;42.714;23.244;2023-12-07T02:38:01;94053.19;;;6.78;85.22
11415;BME280;5763;42.714;23.244;2023-12-07T02:40:44;94161.81;;;7.71;85.47
11415;BME280;5763;42.714;23.244;2023-12-07T02:43:15;94103.06;;;7.40;85.59
11415;BME280;5763;42.714;23.244;2023-12-07T02:45:42;94164.53;;;7.71;85.88
11415;BME280;5763;42.714;23.244;2023-12-07T02:48:09;94007.66;;;6.91;85.18
11415;BME280;5763;42.714;23.244;2023-12-07T02:50:37;94085.66;;;7.16;85.13
11415;BME280;5763;42.714;23.244;2023-12-07T02:53:04;93993.69;;;6.80;84.86
11415;BME280;5763;42.714;23.244;2023-12-07T02:55:31;94140.91;;;7.68;85.22
11415;BME280;5763;42.714;23.244;2023-12-07T02:57:58;94107.38;;;7.50;84.66
11415;BME280;5763;42.714;23.244;2023-12-07T03:00:27;94097.44;;;7.56;83.92
11415;BME280;5763;42.714;23.244;2023-12-07T03:02:54;94095.22;;;7.42;84.13
11415;BME280;5763;42.714;23.244;2023-12-07T03:05:21;94057.06;;;7.11;84.41
11415;BME280;5763;42.714;23.244;2023-12-07T03:07:49;94160.28;;;7.70;84.99
11415;BME280;5763;42.714;23.244;2023-12-07T03:10:16;94098.59;;;7.24;84.54
11415;BME280;5763;42.714;23.244;2023-12-07T03:12:43;94101.63;;;7.26;84.49
11415;BME280;5763;42.714;23.244;2023-12-07T03:15:10;94060.72;;;6.74;84.86
11415;BME280;5763;42.714;23.244;2023-12-07T03:17:40;94165.72;;;7.70;85.31
11415;BME280;5763;42.714;23.244;2023-12-07T03:20:10;94111.00;;;7.25;85.28
11415;BME280;5763;42.714;23.244;2023-12-07T03:22:37;94016.63;;;6.58;85.89
11415;BME280;5763;42.714;23.244;2023-12-07T03:25:05;94074.66;;;6.98;85.37
11415;BME280;5763;42.714;23.244;2023-12-07T03:27:32;94106.84;;;6.99;85.42
11415;BME280;5763;42.714;23.244;2023-12-07T03:29:59;94046.88;;;7.03;84.68
11415;BME280;5763;42.714;23.244;2023-12-07T03:32:27;94163.28;;;7.63;85.55
11415;BME280;5763;42.714;23.244;2023-12-07T03:34:55;94146.25;;;7.50;85.34
11415;BME280;5763;42.714;23.244;2023-12-07T03:37:22;94115.22;;;7.26;85.51
11415;BME280;5763;42.714;23.244;2023-12-07T03:39:50;94125.84;;;7.33;85.36
11415;BME280;5763;42.714;23.244;2023-12-07T03:42:17;94182.84;;;7.71;85.20
11415;BME280;5763;42.714;23.244;2023-12-07T03:44:44;94067.97;;;6.77;84.52
11415;BME280;5763;42.714;23.244;2023-12-07T03:47:12;94126.69;;;7.43;84.16
11415;BME280;5763;42.714;23.244;2023-12-07T03:49:39;94053.28;;;7.09;84.09
11415;BME280;5763;42.714;23.244;2023-12-07T03:52:08;94087.88;;;7.30;83.98
11415;BME280;5763;42.714;23.244;2023-12-07T03:54:35;94166.16;;;7.90;83.93
11415;BME280;5763;42.714;23.244;2023-12-07T03:57:03;94118.41;;;7.68;83.80
11415;BME280;5763;42.714;23.244;2023-12-07T03:59:35;94096.78;;;7.52;83.34
11415;BME280;5763;42.714;23.244;2023-12-07T04:02:03;94075.66;;;7.34;83.46
11415;BME280;5763;42.714;23.244;2023-12-07T04:04:31;94024.63;;;6.95;82.92
11415;BME280;5763;42.714;23.244;2023-12-07T04:06:58;94019.75;;;6.90;83.60
11415;BME280;5763;42.714;23.244;2023-12-07T04:09:27;94010.81;;;6.68;84.25
11415;BME280;5763;42.714;23.244;2023-12-07T04:11:56;94045.66;;;6.61;84.30
11415;BME280;5763;42.714;23.244;2023-12-07T04:14:24;94185.97;;;7.60;85.22
11415;BME280;5763;42.714;23.244;2023-12-07T04:16:51;94180.56;;;7.69;85.22
11415;BME280;5763;42.714;23.244;2023-12-07T04:19:19;94111.69;;;7.38;84.45
11415;BME280;5763;42.714;23.244;2023-12-07T04:21:46;94211.09;;;7.86;84.38
11415;BME280;5763;42.714;23.244;2023-12-07T04:24:13;94158.22;;;7.53;84.54
11415;BME280;5763;42.714;23.244;2023-12-07T04:26:43;94168.19;;;7.34;84.63
11415;BME280;5763;42.714;23.244;2023-12-07T04:29:10;94173.06;;;7.39;84.82
11415;BME280;5763;42.714;23.244;2023-12-07T04:31:37;94118.25;;;7.07;85.41
11415;BME280;5763;42.714;23.244;2023-12-07T04:34:04;94208.59;;;7.57;85.73
11415;BME280;5763;42.714;23.244;2023-12-07T04:36:32;94104.13;;;6.99;85.19
11415;BME280;5763;42.714;23.244;2023-12-07T04:38:59;94031.44;;;6.44;85.86
11415;BME280;5763;42.714;23.244;2023-12-07T04:41:26;94055.47;;;6.46;85.63
11415;BME280;5763;42.714;23.244;2023-12-07T04:43:55;94058.84;;;6.37;85.80
11415;BME280;5763;42.714;23.244;2023-12-07T04:46:22;94204.94;;;7.51;85.91
11415;BME280;5763;42.714;23.244;2023-12-07T04:48:50;94149.13;;;7.13;86.09
11415;BME280;5763;42.714;23.244;2023-12-07T04:51:17;94157.63;;;7.02;85.94
11415;BME280;5763;42.714;23.244;2023-12-07T04:53:44;94168.03;;;7.16;85.87
11415;BME280;5763;42.714;23.244;2023-12-07T04:56:11;94168.72;;;7.08;85.76
11415;BME280;5763;42.714;23.244;2023-12-07T04:58:38;94213.22;;;7.48;85.86
11415;BME280;5763;42.714;23.244;2023-12-07T05:01:07;94056.88;;;6.38;85.15
11415;BME280;5763;42.714;23.244;2023-12-07T05:03:35;94078.31;;;6.70;84.96
11415;BME280;5763;42.714;23.244;2023-12-07T05:06:02;94219.56;;;7.66;84.82
11415;BME280;5763;42.714;23.244;2023-12-07T05:08:30;94219.63;;;7.75;84.39
11415;BME280;5763;42.714;23.244;2023-12-07T05:10:58;94071.91;;;6.76;84.17
11415;BME280;5763;42.714;23.244;2023-12-07T05:13:26;94193.53;;;7.44;85.12
11415;BME280;5763;42.714;23.244;2023-12-07T05:15:53;94200.13;;;7.55;84.69
11415;BME280;5763;42.714;23.244;2023-12-07T05:18:23;94059.81;;;6.43;84.51
11415;BME280;5763;42.714;23.244;2023-12-07T05:20:50;94161.41;;;7.17;84.99
11415;BME280;5763;42.714;23.244;2023-12-07T05:23:18;94223.78;;;7.46;85.89
11415;BME280;5763;42.714;23.244;2023-12-07T05:25:45;94168.72;;;7.08;85.97
11415;BME280;5763;42.714;23.244;2023-12-07T05:28:13;94187.22;;;7.34;85.41
11415;BME280;5763;42.714;23.244;2023-12-07T05:30:40;94087.84;;;6.53;84.83
11415;BME280;5763;42.714;23.244;2023-12-07T05:33:08;94237.00;;;7.69;84.26
11415;BME280;5763;42.714;23.244;2023-12-07T05:35:36;94245.03;;;7.72;83.78
11415;BME280;5763;42.714;23.244;2023-12-07T05:38:04;94208.78;;;7.41;83.62
11415;BME280;5763;42.714;23.244;2023-12-07T05:40:32;94179.88;;;7.22;83.82
11415;BME280;5763;42.714;23.244;2023-12-07T05:43:00;94173.28;;;7.11;84.46
11415;BME280;5763;42.714;23.244;2023-12-07T05:45:27;94164.88;;;6.84;84.91
11415;BME280;5763;42.714;23.244;2023-12-07T05:47:54;94070.31;;;6.54;84.87
11415;BME280;5763;42.714;23.244;2023-12-07T05:50:21;94198.97;;;6.97;84.28
11415;BME280;5763;42.714;23.244;2023-12-07T05:52:50;94237.59;;;7.51;84.50
11415;BME280;5763;42.714;23.244;2023-12-07T05:55:17;94102.03;;;6.69;84.64
11415;BME280;5763;42.714;23.244;2023-12-07T05:57:45;94192.75;;;7.22;84.88
11415;BME280;5763;42.714;23.244;2023-12-07T06:00:13;94250.97;;;7.58;84.86
11415;BME280;5763;42.714;23.244;2023-12-07T06:02:42;94265.66;;;7.61;85.08
11415;BME280;5763;42.714;23.244;2023-12-07T06:05:11;94187.47;;;7.27;84.88
11415;BME280;5763;42.714;23.244;2023-12-07T06:07:38;94188.38;;;7.24;84.43
11415;BME280;5763;42.714;23.244;2023-12-07T06:10:08;94118.25;;;6.60;84.20
11415;BME280;5763;42.714;23.244;2023-12-07T06:12:36;94100.09;;;6.57;83.81
11415;BME280;5763;42.714;23.244;2023-12-07T06:15:05;94212.72;;;7.40;84.12
11415;BME280;5763;42.714;23.244;2023-12-07T06:17:33;94202.38;;;7.35;83.94
11415;BME280;5763;42.714;23.244;2023-12-07T06:20:01;94090.44;;;6.56;84.11
11415;BME280;5763;42.714;23.244;2023-12-07T06:22:29;94193.69;;;7.28;84.89
11415;BME280;5763;42.714;23.244;2023-12-07T06:24:56;94110.94;;;6.70;84.37
11415;BME280;5763;42.714;23.244;2023-12-07T06:27:25;94124.06;;;6.84;83.95
11415;BME280;5763;42.714;23.244;2023-12-07T06:29:52;94210.28;;;7.42;84.01
11415;BME280;5763;42.714;23.244;2023-12-07T06:32:19;94286.09;;;7.99;82.97
11415;BME280;5763;42.714;23.244;2023-12-07T06:34:47;94265.63;;;7.95;83.01
11415;BME280;5763;42.714;23.244;2023-12-07T06:37:14;94089.28;;;6.79;83.10
11415;BME280;5763;42.714;23.244;2023-12-07T06:39:43;94104.34;;;6.92;82.93
11415;BME280;5763;42.714;23.244;2023-12-07T06:42:10;94162.44;;;7.32;82.51
11415;BME280;5763;42.714;23.244;2023-12-07T06:44:38;94221.91;;;7.55;82.06
11415;BME280;5763;42.714;23.244;2023-12-07T06:47:06;94278.94;;;8.14;82.24
11415;BME280;5763;42.714;23.244;2023-12-07T06:49:33;94101.41;;;6.99;82.24
11415;BME280;5763;42.714;23.244;2023-12-07T06:52:01;94215.91;;;7.82;81.89
11415;BME280;5763;42.714;23.244;2023-12-07T06:54:29;94186.00;;;7.48;82.08
11415;BME280;5763;42.714;23.244;2023-12-07T06:56:57;94151.00;;;7.03;82.78
11415;BME280;5763;42.714;23.244;2023-12-07T06:59:24;94152.03;;;7.18;82.50
11415;BME280;5763;42.714;23.244;2023-12-07T07:01:53;94286.47;;;8.10;82.98
11415;BME280;5763;42.714;23.244;2023-12-07T07:04:20;94191.69;;;7.41;83.22
11415;BME280;5763;42.714;23.244;2023-12-07T07:06:47;94278.09;;;7.83;83.73
11415;BME280;5763;42.714;23.244;2023-12-07T07:09:14;94197.09;;;7.19;83.99
11415;BME280;5763;42.714;23.244;2023-12-07T07:11:43;94143.75;;;6.88;84.22
11415;BME280;5763;42.714;23.244;2023-12-07T07:14:13;94284.66;;;7.73;84.86
11415;BME280;5763;42.714;23.244;2023-12-07T07:16:41;94318.50;;;7.85;85.15
11415;BME280;5763;42.714;23.244;2023-12-07T07:19:10;94226.63;;;7.42;84.76
11415;BME280;5763;42.714;23.244;2023-12-07T07:21:37;94186.00;;;7.14;85.02
11415;BME280;5763;42.714;23.244;2023-12-07T07:24:05;94269.16;;;7.61;85.50
11415;BME280;5763;42.714;23.244;2023-12-07T07:26:33;94203.88;;;7.02;85.66
11415;BME280;5763;42.714;23.244;2023-12-07T07:29:00;94129.81;;;6.39;86.23
11415;BME280;5763;42.714;23.244;2023-12-07T07:31:28;94318.38;;;7.54;84.95
11415;BME280;5763;42.714;23.244;2023-12-07T07:33:55;94226.19;;;6.72;85.12
11415;BME280;5763;42.714;23.244;2023-12-07T07:36:24;94292.22;;;7.23;85.11
11415;BME280;5763;42.714;23.244;2023-12-07T07:38:51;94311.97;;;7.36;84.72
11415;BME280;5763;42.714;23.244;2023-12-07T07:41:18;94168.72;;;6.24;85.13
11415;BME280;5763;42.714;23.244;2023-12-07T07:43:46;94320.72;;;7.18;86.11
11415;BME280;5763;42.714;23.244;2023-12-07T07:46:14;94323.66;;;7.11;85.95
11415;BME280;5763;42.714;23.244;2023-12-07T07:48:41;94294.41;;;6.90;85.80
11415;BME280;5763;42.714;23.244;2023-12-07T07:51:08;94237.81;;;6.23;86.15
11415;BME280;5763;42.714;23.244;2023-12-07T07:53:37;94260.03;;;6.59;85.78
11415;BME280;5763;42.714;23.244;2023-12-07T07:56:05;94332.59;;;6.99;85.92
11415;BME280;5763;42.714;23.244;2023-12-07T07:58:32;94324.75;;;6.89;85.11
11415;BME280;5763;42.714;23.244;2023-12-07T08:00:59;94327.59;;;6.98;84.17
11415;BME280;5763;42.714;23.244;2023-12-07T08:03:26;94330.06;;;6.92;83.95
11415;BME280;5763;42.714;23.244;2023-12-07T08:05:53;94314.09;;;6.69;84.80
11415;BME280;5763;42.714;23.244;2023-12-07T08:08:21;94342.81;;;6.83;85.93
11415;BME280;5763;42.714;23.244;2023-12-07T08:10:49;94238.47;;;6.14;85.77
11415;BME280;5763;42.714;23.244;2023-12-07T08:13:17;94294.63;;;6.58;85.17
11415;BME280;5763;42.714;23.244;2023-12-07T08:15:44;94348.44;;;6.88;84.03
11415;BME280;5763;42.714;23.244;2023-12-07T08:18:11;94286.63;;;6.39;83.85
11415;BME280;5763;42.714;23.244;2023-12-07T08:20:40;94253.97;;;6.01;83.49
11415;BME280;5763;42.714;23.244;2023-12-07T08:23:07;94293.25;;;6.25;83.18
11415;BME280;5763;42.714;23.244;2023-12-07T08:25:37;94290.75;;;6.18;83.24
11415;BME280;5763;42.714;23.244;2023-12-07T08:28:07;94255.06;;;6.04;82.68
11415;BME280;5763;42.714;23.244;2023-12-07T08:30:35;94383.84;;;6.60;82.92
11415;BME280;5763;42.714;23.244;2023-12-07T08:33:02;94319.97;;;6.27;82.48
11415;BME280;5763;42.714;23.244;2023-12-07T08:35:29;94339.31;;;6.29;82.56
11415;BME280;5763;42.714;23.244;2023-12-07T08:37:57;94311.38;;;6.16;83.14
11415;BME280;5763;42.714;23.244;2023-12-07T08:40:24;94318.56;;;6.22;83.38
11415;BME280;5763;42.714;23.244;2023-12-07T08:42:51;94345.66;;;6.38;83.71
11415;BME280;5763;42.714;23.244;2023-12-07T08:45:20;94341.28;;;6.28;82.56
11415;BME280;5763;42.714;23.244;2023-12-07T08:47:47;94373.69;;;6.35;82.19
11415;BME280;5763;42.714;23.244;2023-12-07T08:50:14;94375.78;;;6.44;82.58
11415;BME280;5763;42.714;23.244;2023-12-07T08:52:42;94233.78;;;5.45;82.14
11415;BME280;5763;42.714;23.244;2023-12-07T08:55:10;94311.28;;;5.91;82.46
11415;BME280;5763;42.714;23.244;2023-12-07T08:57:37;94377.59;;;6.34;82.52
11415;BME280;5763;42.714;23.244;2023-12-07T09:00:06;94231.13;;;5.13;81.59
11415;BME280;5763;42.714;23.244;2023-12-07T09:02:35;94182.34;;;4.97;82.67
11415;BME280;5763;42.714;23.244;2023-12-07T09:05:02;94357.13;;;5.89;82.60
11415;BME280;5763;42.714;23.244;2023-12-07T09:07:30;94426.25;;;6.29;82.98
11415;BME280;5763;42.714;23.244;2023-12-07T09:09:57;94311.63;;;5.77;83.25
11415;BME280;5763;42.714;23.244;2023-12-07T09:12:24;94384.47;;;6.10;83.14
11415;BME280;5763;42.714;23.244;2023-12-07T09:14:51;94379.69;;;5.86;83.44
11415;BME280;5763;42.714;23.244;2023-12-07T09:17:19;94286.88;;;4.98;84.15
11415;BME280;5763;42.714;23.244;2023-12-07T09:19:47;94310.44;;;5.33;84.46
11415;BME280;5763;42.714;23.244;2023-12-07T09:22:15;94313.16;;;5.01;85.26
11415;BME280;5763;42.714;23.244;2023-12-07T09:24:42;94307.13;;;5.10;86.21
11415;BME280;5763;42.714;23.244;2023-12-07T09:27:09;94281.38;;;5.02;86.16
11415;BME280;5763;42.714;23.244;2023-12-07T09:29:37;94385.53;;;5.68;86.56
11415;BME280;5763;42.714;23.244;2023-12-07T09:32:05;94391.78;;;5.65;86.09
11415;BME280;5763;42.714;23.244;2023-12-07T09:34:33;94386.34;;;5.65;86.03
11415;BME280;5763;42.714;23.244;2023-12-07T09:37:09;94375.50;;;5.65;86.36
11415;BME280;5763;42.714;23.244;2023-12-07T09:39:37;94223.94;;;4.59;86.65
11415;BME280;5763;42.714;23.244;2023-12-07T09:42:05;94208.25;;;4.34;85.76
11415;BME280;5763;42.714;23.244;2023-12-07T09:44:32;94384.69;;;5.71;86.02
11415;BME280;5763;42.714;23.244;2023-12-07T09:47:00;94384.09;;;5.64;86.08
11415;BME280;5763;42.714;23.244;2023-12-07T09:49:27;94194.56;;;4.41;85.17
11415;BME280;5763;42.714;23.244;2023-12-07T09:51:58;94308.66;;;5.11;85.49
11415;BME280;5763;42.714;23.244;2023-12-07T09:54:27;94203.16;;;4.20;85.08
11415;BME280;5763;42.714;23.244;2023-12-07T09:56:56;94313.41;;;5.07;84.88
11415;BME280;5763;42.714;23.244;2023-12-07T09:59:24;94378.09;;;5.56;84.55
11415;BME280;5763;42.714;23.244;2023-12-07T10:01:51;94372.81;;;5.49;84.63
11415;BME280;5763;42.714;23.244;2023-12-07T10:04:19;94382.41;;;5.54;85.01
11415;BME280;5763;42.714;23.244;2023-12-07T10:06:48;94376.19;;;5.53;84.43
11415;BME280;5763;42.714;23.244;2023-12-07T10:09:16;94394.00;;;5.54;84.71
11415;BME280;5763;42.714;23.244;2023-12-07T10:11:47;94272.34;;;4.41;84.96
11415;BME280;5763;42.714;23.244;2023-12-07T10:14:14;94385.72;;;5.45;84.91
11415;BME280;5763;42.714;23.244;2023-12-07T10:16:52;94392.31;;;5.44;85.03
11415;BME280;5763;42.714;23.244;2023-12-07T10:19:21;94310.31;;;4.73;84.82
11415;BME280;5763;42.714;23.244;2023-12-07T10:21:49;94232.63;;;4.34;85.00
11415;BME280;5763;42.714;23.244;2023-12-07T10:24:16;94238.56;;;4.29;84.64
11415;BME280;5763;42.714;23.244;2023-12-07T10:26:47;94296.78;;;4.89;84.75
11415;BME280;5763;42.714;23.244;2023-12-07T10:29:14;94297.63;;;4.86;84.59
11415;BME280;5763;42.714;23.244;2023-12-07T10:31:44;94194.78;;;4.15;84.42
11415;BME280;5763;42.714;23.244;2023-12-07T10:34:13;94322.06;;;5.02;84.83
11415;BME280;5763;42.714;23.244;2023-12-07T10:36:40;94200.88;;;4.19;84.70
11415;BME280;5763;42.714;23.244;2023-12-07T10:39:07;94366.97;;;5.19;84.44
11415;BME280;5763;42.714;23.244;2023-12-07T10:41:34;94297.03;;;4.78;85.87
11415;BME280;5763;42.714;23.244;2023-12-07T10:44:06;94356.34;;;5.08;86.31
11415;BME280;5763;42.714;23.244;2023-12-07T10:46:35;94414.31;;;5.14;84.54
11415;BME280;5763;42.714;23.244;2023-12-07T10:49:04;94233.81;;;4.17;85.09
11415;BME280;5763;42.714;23.244;2023-12-07T10:51:38;94236.63;;;4.10;85.19
11415;BME280;5763;42.714;23.244;2023-12-07T10:54:08;94178.00;;;3.68;85.94
11415;BME280;5763;42.714;23.244;2023-12-07T10:56:39;94340.66;;;4.84;86.19
11415;BME280;5763;42.714;23.244;2023-12-07T10:59:10;94332.59;;;4.45;87.24
11415;BME280;5763;42.714;23.244;2023-12-07T11:01:39;94181.81;;;3.71;86.13
11415;BME280;5763;42.714;23.244;2023-12-07T11:04:10;94225.50;;;3.89;86.54
11415;BME280;5763;42.714;23.244;2023-12-07T11:06:38;94240.78;;;3.79;85.95
11415;BME280;5763;42.714;23.244;2023-12-07T11:09:09;94289.97;;;4.49;86.26
11415;BME280;5763;42.714;23.244;2023-12-07T11:11:43;94219.03;;;4.02;85.98
11415;BME280;5763;42.714;23.244;2023-12-07T11:14:16;94367.28;;;5.05;86.10
11415;BME280;5763;42.714;23.244;2023-12-07T11:16:45;94200.56;;;3.81;86.33
11415;BME280;5763;42.714;23.244;2023-12-07T11:19:44;94374.91;;;4.94;86.84
11415;BME280;5763;42.714;23.244;2023-12-07T11:22:12;94171.16;;;3.64;86.40
11415;BME280;5763;42.714;23.244;2023-12-07T11:24:52;94269.34;;;4.19;86.59
11415;BME280;5763;42.714;23.244;2023-12-07T11:27:21;94203.31;;;3.78;87.42
11415;BME280;5763;42.714;23.244;2023-12-07T11:29:50;94371.25;;;4.84;87.22
11415;BME280;5763;42.714;23.244;2023-12-07T11:32:18;94337.22;;;4.64;86.80
11415;BME280;5763;42.714;23.244;2023-12-07T11:34:45;94198.63;;;3.62;86.85
11415;BME280;5763;42.714;23.244;2023-12-07T11:37:15;94251.09;;;4.04;86.46
11415;BME280;5763;42.714;23.244;2023-12-07T11:39:43;94372.19;;;4.58;86.19
11415;BME280;5763;42.714;23.244;2023-12-07T11:42:15;94220.94;;;3.86;86.86
11415;BME280;5763;42.714;23.244;2023-12-07T11:44:43;94253.25;;;4.12;87.16
11415;BME280;5763;42.714;23.244;2023-12-07T11:47:16;94301.81;;;4.19;86.68
11415;BME280;5763;42.714;23.244;2023-12-07T11:49:44;94243.00;;;3.84;86.20
11415;BME280;5763;42.714;23.244;2023-12-07T11:52:15;94284.19;;;4.11;87.38
11415;BME280;5763;42.714;23.244;2023-12-07T11:54:46;94339.00;;;4.54;86.44
11415;BME280;5763;42.714;23.244;2023-12-07T11:57:14;94171.97;;;3.61;86.96
11415;BME280;5763;42.714;23.244;2023-12-07T11:59:42;94304.13;;;4.21;87.21
11415;BME280;5763;42.714;23.244;2023-12-07T12:02:11;94195.69;;;3.73;87.54
11415;BME280;5763;42.714;23.244;2023-12-07T12:04:40;94316.84;;;4.75;87.25
11415;BME280;5763;42.714;23.244;2023-12-07T12:07:07;94309.03;;;4.61;85.79
11415;BME280;5763;42.714;23.244;2023-12-07T12:09:35;94200.94;;;3.99;86.89
11415;BME280;5763;42.714;23.244;2023-12-07T12:12:03;94297.88;;;4.75;86.17
11415;BME280;5763;42.714;23.244;2023-12-07T12:14:30;94181.56;;;4.01;87.00
11415;BME280;5763;42.714;23.244;2023-12-07T12:16:58;94183.00;;;4.05;86.12
11415;BME280;5763;42.714;23.244;2023-12-07T12:19:26;94327.94;;;4.81;85.82
11415;BME280;5763;42.714;23.244;2023-12-07T12:21:57;94362.47;;;5.28;85.85
11415;BME280;5763;42.714;23.244;2023-12-07T12:24:24;94183.34;;;4.07;85.16
11415;BME280;5763;42.714;23.244;2023-12-07T12:26:52;94327.31;;;5.09;84.58
11415;BME280;5763;42.714;23.244;2023-12-07T12:29:19;94373.13;;;5.19;85.13
11415;BME280;5763;42.714;23.244;2023-12-07T12:31:48;94350.94;;;5.08;85.49
11415;BME280;5763;42.714;23.244;2023-12-07T12:34:15;94220.03;;;3.92;85.50
11415;BME280;5763;42.714;23.244;2023-12-07T12:36:43;94275.44;;;4.23;85.00
11415;BME280;5763;42.714;23.244;2023-12-07T12:39:12;94207.44;;;4.02;85.31
11415;BME280;5763;42.714;23.244;2023-12-07T12:41:39;94283.72;;;4.52;84.91
11415;BME280;5763;42.714;23.244;2023-12-07T12:44:07;94302.38;;;4.66;84.42
11415;BME280;5763;42.714;23.244;2023-12-07T12:46:35;94298.69;;;4.56;84.95
11415;BME280;5763;42.714;23.244;2023-12-07T12:49:03;94303.69;;;4.58;85.34
11415;BME280;5763;42.714;23.244;2023-12-07T12:51:30;94420.69;;;5.08;85.25
11415;BME280;5763;42.714;23.244;2023-12-07T12:53:59;94196.84;;;3.91;84.44
11415;BME280;5763;42.714;23.244;2023-12-07T12:56:28;94284.78;;;4.38;83.99
11415;BME280;5763;42.714;23.244;2023-12-07T12:58:55;94311.25;;;4.66;84.76
11415;BME280;5763;42.714;23.244;2023-12-07T13:01:23;94251.19;;;4.16;83.96
11415;BME280;5763;42.714;23.244;2023-12-07T13:03:50;94271.00;;;4.13;84.43
11415;BME280;5763;42.714;23.244;2023-12-07T13:06:18;94320.13;;;4.51;85.38
11415;BME280;5763;42.714;23.244;2023-12-07T13:08:47;94201.16;;;3.69;85.36
11415;BME280;5763;42.714;23.244;2023-12-07T13:11:18;94306.94;;;4.33;85.80
11415;BME280;5763;42.714;23.244;2023-12-07T13:13:47;94209.78;;;3.64;86.58
11415;BME280;5763;42.714;23.244;2023-12-07T13:16:15;94323.81;;;4.41;86.77